createdAt,value
2018-09-24T00:02:24.390Z,8.80
2018-09-24T00:04:52.770Z,8.75
2018-09-24T00:07:23.501Z,8.82
2018-09-24T00:09:52.708Z,8.80
2018-09-24T00:12:23.892Z,8.84
2018-09-24T00:14:52.223Z,8.86
2018-09-24T00:17:20.595Z,8.89
2018-09-24T00:19:48.921Z,8.85
2018-09-24T00:22:17.272Z,8.84
2018-09-24T00:24:46.633Z,8.85
2018-09-24T00:27:15.014Z,8.87
2018-09-24T00:29:43.354Z,8.83
2018-09-24T00:32:12.729Z,8.90
2018-09-24T00:34:41.100Z,8.82
2018-09-24T00:37:10.461Z,8.84
2018-09-24T00:39:38.821Z,8.79
2018-09-24T00:42:07.166Z,8.73
2018-09-24T00:44:37.488Z,8.73
2018-09-24T00:47:06.783Z,8.67
2018-09-24T00:49:35.557Z,8.74
2018-09-24T00:52:05.880Z,8.70
2018-09-24T00:54:35.621Z,8.67
2018-09-24T00:57:05.616Z,8.59
2018-09-24T00:59:35.606Z,8.57
2018-09-24T01:02:05.100Z,8.70
2018-09-24T01:04:35.097Z,8.67
2018-09-24T01:07:05.266Z,8.69
2018-09-24T01:09:34.343Z,8.70
2018-09-24T01:12:03.642Z,8.68
2018-09-24T01:14:32.897Z,8.71
2018-09-24T01:17:02.238Z,8.72
2018-09-24T01:19:31.454Z,8.75
2018-09-24T01:21:59.776Z,8.75
2018-09-24T01:24:28.098Z,8.65
2018-09-24T01:26:56.448Z,8.58
2018-09-24T01:29:25.613Z,8.56
2018-09-24T01:31:54.535Z,8.53
2018-09-24T01:34:23.467Z,8.53
2018-09-24T01:36:51.916Z,8.54
2018-09-24T01:39:20.261Z,8.51
2018-09-24T01:41:48.705Z,8.53
2018-09-24T01:44:17.036Z,8.43
2018-09-24T01:46:45.469Z,8.45
2018-09-24T01:49:14.100Z,8.43
2018-09-24T01:51:42.421Z,8.37
2018-09-24T01:54:10.744Z,8.38
2018-09-24T01:56:39.221Z,8.39
2018-09-24T01:59:07.551Z,8.36
2018-09-24T02:01:37.570Z,8.37
2018-09-24T02:04:06.718Z,8.40
2018-09-24T02:06:36.070Z,8.44
2018-09-24T02:09:05.914Z,8.40
2018-09-24T02:11:34.813Z,8.42
2018-09-24T02:14:03.135Z,8.35
2018-09-24T02:16:31.470Z,8.28
2018-09-24T02:19:00.303Z,8.22
2018-09-24T02:21:28.681Z,8.13
2018-09-24T02:24:01.677Z,8.19
2018-09-24T02:26:29.998Z,8.14
2018-09-24T02:28:59.349Z,8.13
2018-09-24T02:31:28.718Z,8.04
2018-09-24T02:33:57.961Z,8.03
2018-09-24T02:36:27.185Z,8.05
2018-09-24T02:38:56.458Z,8.03
2018-09-24T02:41:25.810Z,8.05
2018-09-24T02:43:56.146Z,8.16
2018-09-24T02:46:26.481Z,8.06
2018-09-24T02:48:59.626Z,8.10
2018-09-24T02:51:28.005Z,8.09
2018-09-24T02:53:57.365Z,8.03
2018-09-24T02:56:26.581Z,8.00
2018-09-24T02:58:55.869Z,7.86
2018-09-24T03:01:25.942Z,7.84
2018-09-24T03:03:55.645Z,7.83
2018-09-24T03:06:25.032Z,7.82
2018-09-24T03:08:54.441Z,7.85
2018-09-24T03:11:22.813Z,7.86
2018-09-24T03:13:54.059Z,7.78
2018-09-24T03:16:23.305Z,7.85
2018-09-24T03:18:58.606Z,7.75
2018-09-24T03:21:28.102Z,7.73
2018-09-24T03:23:56.438Z,7.66
2018-09-24T03:26:26.630Z,7.69
2018-09-24T03:28:55.299Z,7.65
2018-09-24T03:31:25.500Z,7.69
2018-09-24T03:33:55.164Z,7.66
2018-09-24T03:36:25.525Z,7.62
2018-09-24T03:38:55.970Z,7.66
2018-09-24T03:41:26.273Z,7.61
2018-09-24T03:43:54.653Z,7.57
2018-09-24T03:46:23.694Z,7.58
2018-09-24T03:48:52.013Z,7.61
2018-09-24T03:51:21.393Z,7.56
2018-09-24T03:53:49.717Z,7.55
2018-09-24T03:56:19.038Z,7.58
2018-09-24T03:58:47.478Z,7.48
2018-09-24T04:01:16.700Z,7.50
2018-09-24T04:03:45.060Z,7.45
2018-09-24T04:06:19.645Z,7.43
2018-09-24T04:08:54.472Z,7.48
2018-09-24T04:11:29.180Z,7.54
2018-09-24T04:14:02.917Z,7.50
2018-09-24T04:16:37.695Z,7.41
2018-09-24T04:19:12.430Z,7.45
2018-09-24T04:21:46.069Z,7.51
2018-09-24T04:24:19.830Z,7.49
2018-09-24T04:26:54.723Z,7.44
2018-09-24T04:29:28.540Z,7.45
2018-09-24T04:32:02.194Z,7.39
2018-09-24T04:34:35.923Z,7.33
2018-09-24T04:37:11.578Z,7.27
2018-09-24T04:39:46.287Z,7.33
2018-09-24T04:42:20.077Z,7.39
2018-09-24T04:44:54.881Z,7.39
2018-09-24T04:47:29.586Z,7.35
2018-09-24T04:50:05.125Z,7.32
2018-09-24T04:52:39.839Z,7.37
2018-09-24T04:55:13.640Z,7.47
2018-09-24T04:57:48.353Z,7.44
2018-09-24T05:00:22.028Z,7.37
2018-09-24T05:02:56.621Z,7.37
2018-09-24T05:05:31.753Z,7.37
2018-09-24T05:08:06.295Z,7.39
2018-09-24T05:10:39.929Z,7.36
2018-09-24T05:13:13.897Z,7.34
2018-09-24T05:15:47.718Z,7.40
2018-09-24T05:18:21.301Z,7.42
2018-09-24T05:20:54.869Z,7.41
2018-09-24T05:23:28.613Z,7.40
2018-09-24T05:26:02.185Z,7.46
2018-09-24T05:28:35.929Z,7.48
2018-09-24T05:31:09.914Z,7.44
2018-09-24T05:33:43.611Z,7.50
2018-09-24T05:36:17.376Z,7.53
2018-09-24T05:38:51.062Z,7.57
2018-09-24T05:41:24.816Z,7.58
2018-09-24T05:43:58.393Z,7.59
2018-09-24T05:46:32.536Z,7.67
2018-09-24T05:49:06.234Z,7.75
2018-09-24T05:51:39.977Z,7.73
2018-09-24T05:54:13.787Z,7.73
2018-09-24T05:56:47.387Z,7.80
2018-09-24T05:59:21.126Z,7.89
2018-09-24T06:01:54.805Z,7.88
2018-09-24T06:04:28.501Z,7.98
2018-09-24T06:07:02.210Z,8.00
2018-09-24T06:09:36.997Z,7.99
2018-09-24T06:12:11.520Z,8.09
2018-09-24T06:14:45.034Z,8.10
2018-09-24T06:17:18.748Z,8.12
2018-09-24T06:19:52.445Z,8.27
2018-09-24T06:22:26.107Z,8.27
2018-09-24T06:24:59.897Z,8.31
2018-09-24T06:27:34.169Z,8.40
2018-09-24T06:30:07.889Z,8.38
2018-09-24T06:32:42.429Z,8.47
2018-09-24T06:35:16.045Z,8.57
2018-09-24T06:37:50.789Z,8.76
2018-09-24T06:40:25.502Z,8.70
2018-09-24T06:43:01.145Z,8.82
2018-09-24T06:45:35.184Z,8.79
2018-09-24T06:48:08.856Z,8.82
2018-09-24T06:50:42.645Z,8.91
2018-09-24T06:53:16.337Z,8.93
2018-09-24T06:55:49.905Z,8.94
2018-09-24T06:58:24.702Z,8.96
2018-09-24T07:00:58.300Z,8.96
2018-09-24T07:03:32.107Z,9.05
2018-09-24T07:06:06.863Z,9.16
2018-09-24T07:08:40.568Z,9.19
2018-09-24T07:11:15.360Z,9.29
2018-09-24T07:13:55.709Z,9.39
2018-09-24T07:16:31.445Z,9.41
2018-09-24T07:19:06.049Z,9.48
2018-09-24T07:21:39.777Z,9.68
2018-09-24T07:24:14.361Z,9.59
2018-09-24T07:26:47.913Z,9.79
2018-09-24T07:29:21.630Z,9.81
2018-09-24T07:31:56.369Z,9.86
2018-09-24T07:34:32.546Z,9.86
2018-09-24T07:37:06.256Z,9.91
2018-09-24T07:39:41.953Z,9.85
2018-09-24T07:42:15.417Z,9.85
2018-09-24T07:44:49.164Z,9.95
2018-09-24T07:47:25.450Z,10.17
2018-09-24T07:50:00.257Z,10.41
2018-09-24T07:52:34.858Z,10.38
2018-09-24T07:55:09.582Z,10.28
2018-09-24T07:57:43.369Z,10.38
2018-09-24T08:00:18.161Z,10.54
2018-09-24T08:02:53.709Z,10.53
2018-09-24T08:05:28.273Z,10.31
2018-09-24T08:08:03.007Z,10.14
2018-09-24T08:10:37.766Z,10.27
2018-09-24T08:13:12.389Z,10.60
2018-09-24T08:15:46.189Z,10.70
2018-09-24T08:18:21.041Z,10.82
2018-09-24T08:20:55.671Z,10.77
2018-09-24T08:23:31.399Z,10.56
2018-09-24T08:26:05.985Z,10.51
2018-09-24T08:28:41.675Z,10.75
2018-09-24T08:31:15.300Z,11.05
2018-09-24T08:33:49.032Z,10.95
2018-09-24T08:36:22.799Z,11.04
2018-09-24T08:38:56.409Z,11.11
2018-09-24T08:41:29.981Z,11.21
2018-09-24T08:44:05.165Z,11.27
2018-09-24T08:46:38.732Z,11.42
2018-09-24T08:49:13.413Z,11.40
2018-09-24T08:51:47.100Z,11.33
2018-09-24T08:54:21.942Z,11.23
2018-09-24T08:56:55.754Z,11.27
2018-09-24T08:59:31.469Z,11.48
2018-09-24T09:02:05.249Z,11.39
2018-09-24T09:04:39.937Z,11.34
2018-09-24T09:07:13.692Z,11.52
2018-09-24T09:09:48.617Z,11.71
2018-09-24T09:12:23.520Z,12.07
2018-09-24T09:14:58.359Z,12.03
2018-09-24T09:17:32.979Z,11.86
2018-09-24T09:20:07.725Z,11.78
2018-09-24T09:22:42.392Z,11.81
2018-09-24T09:25:17.128Z,11.79
2018-09-24T09:27:51.801Z,11.76
2018-09-24T09:30:26.495Z,11.88
2018-09-24T09:33:02.159Z,12.01
2018-09-24T09:35:36.902Z,12.06
2018-09-24T09:38:12.717Z,12.18
2018-09-24T09:40:47.573Z,12.20
2018-09-24T09:43:22.320Z,12.17
2018-09-24T09:45:57.073Z,11.94
2018-09-24T09:48:31.890Z,12.05
2018-09-24T09:51:06.461Z,12.22
2018-09-24T09:53:40.410Z,12.11
2018-09-24T09:56:14.187Z,12.05
2018-09-24T09:58:48.749Z,12.27
2018-09-24T10:01:23.821Z,12.26
2018-09-24T10:03:58.446Z,12.46
2018-09-24T10:06:32.136Z,12.46
2018-09-24T10:09:05.710Z,12.62
2018-09-24T10:11:40.291Z,12.53
2018-09-24T10:14:14.033Z,12.41
2018-09-24T10:16:47.689Z,12.41
2018-09-24T10:19:22.412Z,12.47
2018-09-24T10:21:57.009Z,12.64
2018-09-24T10:24:33.220Z,12.85
2018-09-24T10:27:07.851Z,13.02
2018-09-24T10:29:42.865Z,12.71
2018-09-24T10:32:17.499Z,12.72
2018-09-24T10:34:52.079Z,12.82
2018-09-24T10:37:25.793Z,12.96
2018-09-24T10:39:59.356Z,13.16
2018-09-24T10:42:32.949Z,13.05
2018-09-24T10:45:06.493Z,13.09
2018-09-24T10:47:40.182Z,13.04
2018-09-24T10:50:13.855Z,12.97
2018-09-24T10:52:47.624Z,13.05
2018-09-24T10:55:21.341Z,13.32
2018-09-24T10:57:55.109Z,13.05
2018-09-24T11:00:28.826Z,12.88
2018-09-24T11:03:02.440Z,12.87
2018-09-24T11:05:36.152Z,12.88
2018-09-24T11:08:09.893Z,12.88
2018-09-24T11:10:43.589Z,12.69
2018-09-24T11:13:17.287Z,12.40
2018-09-24T11:15:51.097Z,12.62
2018-09-24T11:18:24.747Z,12.88
2018-09-24T11:20:58.254Z,12.96
2018-09-24T11:23:33.066Z,12.83
2018-09-24T11:26:06.785Z,12.83
2018-09-24T11:28:42.540Z,12.84
2018-09-24T11:31:16.265Z,13.12
2018-09-24T11:33:50.792Z,13.25
2018-09-24T11:36:24.492Z,13.37
2018-09-24T11:38:59.209Z,13.59
2018-09-24T11:41:32.889Z,13.71
2018-09-24T11:44:07.563Z,13.67
2018-09-24T11:46:42.221Z,13.71
2018-09-24T11:49:16.997Z,13.93
2018-09-24T11:51:51.748Z,13.84
2018-09-24T11:54:26.456Z,14.05
2018-09-24T11:57:00.025Z,14.35
2018-09-24T11:59:34.729Z,14.48
2018-09-24T12:02:09.268Z,14.91
2018-09-24T12:04:43.996Z,14.78
2018-09-24T12:07:18.771Z,14.23
2018-09-24T12:09:53.899Z,13.76
2018-09-24T12:12:28.585Z,12.36
2018-09-24T12:15:03.268Z,11.22
2018-09-24T12:17:37.993Z,9.83
2018-09-24T12:20:12.585Z,9.01
2018-09-24T12:22:47.249Z,8.85
2018-09-24T12:25:20.869Z,8.52
2018-09-24T12:27:54.570Z,8.52
2018-09-24T12:30:29.226Z,8.44
2018-09-24T12:33:05.061Z,8.42
2018-09-24T12:35:39.706Z,8.38
2018-09-24T12:38:14.428Z,8.46
2018-09-24T12:40:49.201Z,8.63
2018-09-24T12:43:24.910Z,8.56
2018-09-24T12:45:59.505Z,8.62
2018-09-24T12:48:34.740Z,8.80
2018-09-24T12:51:08.504Z,8.77
2018-09-24T12:53:42.476Z,8.67
2018-09-24T12:56:17.149Z,8.41
2018-09-24T12:58:51.434Z,8.26
2018-09-24T13:01:26.039Z,8.04
2018-09-24T13:03:59.835Z,7.91
2018-09-24T13:06:35.643Z,7.97
2018-09-24T13:09:09.276Z,7.85
2018-09-24T13:11:44.090Z,7.98
2018-09-24T13:14:17.796Z,8.03
2018-09-24T13:16:52.424Z,8.40
2018-09-24T13:19:26.142Z,8.50
2018-09-24T13:22:00.834Z,8.88
2018-09-24T13:24:36.094Z,9.04
2018-09-24T13:27:12.021Z,9.02
2018-09-24T13:29:45.708Z,9.14
2018-09-24T13:32:20.442Z,9.16
2018-09-24T13:34:55.166Z,9.23
2018-09-24T13:37:29.742Z,9.32
2018-09-24T13:40:05.369Z,9.70
2018-09-24T13:42:39.157Z,9.76
2018-09-24T13:45:13.871Z,9.91
2018-09-24T13:47:48.418Z,9.98
2018-09-24T13:50:23.932Z,10.19
2018-09-24T13:52:58.501Z,10.41
2018-09-24T13:55:40.310Z,10.57
2018-09-24T13:58:14.393Z,10.75
2018-09-24T14:00:49.176Z,10.89
2018-09-24T14:03:25.052Z,10.95
2018-09-24T14:05:59.644Z,10.85
2018-09-24T14:08:34.991Z,10.54
2018-09-24T14:11:09.612Z,10.49
2018-09-24T14:13:43.232Z,10.46
2018-09-24T14:16:17.834Z,10.31
2018-09-24T14:18:51.619Z,10.12
2018-09-24T14:21:25.571Z,10.02
2018-09-24T14:24:00.248Z,9.89
2018-09-24T14:26:33.887Z,9.82
2018-09-24T14:29:07.573Z,9.61
2018-09-24T14:31:41.781Z,9.57
2018-09-24T14:34:15.369Z,9.59
2018-09-24T14:36:48.952Z,9.57
2018-09-24T14:39:22.632Z,9.54
2018-09-24T14:41:57.154Z,9.61
2018-09-24T14:44:31.518Z,9.61
2018-09-24T14:47:05.252Z,9.55
2018-09-24T14:49:38.907Z,9.54
2018-09-24T14:52:12.885Z,9.61
2018-09-24T14:54:46.585Z,9.64
2018-09-24T14:57:20.152Z,9.62
2018-09-24T14:59:54.553Z,9.85
2018-09-24T15:02:28.370Z,9.94
2018-09-24T15:05:02.116Z,10.06
2018-09-24T15:07:36.876Z,10.32
2018-09-24T15:10:10.521Z,10.54
2018-09-24T15:12:44.286Z,10.61
2018-09-24T15:15:17.877Z,10.78
2018-09-24T15:17:51.655Z,11.15
2018-09-24T15:20:25.293Z,11.30
2018-09-24T15:22:58.929Z,11.34
2018-09-24T15:25:35.301Z,11.48
2018-09-24T15:28:08.964Z,11.65
2018-09-24T15:30:43.137Z,11.68
2018-09-24T15:33:16.699Z,11.67
2018-09-24T15:35:50.442Z,11.62
2018-09-24T15:38:25.251Z,11.60
2018-09-24T15:40:59.036Z,11.26
2018-09-24T15:43:32.775Z,11.06
2018-09-24T15:46:06.445Z,10.89
2018-09-24T15:48:40.077Z,10.80
2018-09-24T15:51:13.696Z,10.59
2018-09-24T15:53:47.552Z,10.39
2018-09-24T15:56:21.257Z,10.22
2018-09-24T15:58:54.895Z,10.09
2018-09-24T16:01:28.710Z,9.95
2018-09-24T16:04:02.313Z,9.93
2018-09-24T16:06:35.901Z,9.87
2018-09-24T16:09:10.477Z,9.92
2018-09-24T16:11:44.240Z,9.86
2018-09-24T16:14:17.938Z,9.89
2018-09-24T16:16:52.716Z,9.93
2018-09-24T16:19:27.486Z,9.72
2018-09-24T16:22:02.262Z,9.53
2018-09-24T16:24:36.020Z,9.45
2018-09-24T16:27:11.061Z,9.24
2018-09-24T16:29:45.806Z,9.16
2018-09-24T16:32:20.470Z,9.09
2018-09-24T16:34:55.098Z,9.08
2018-09-24T16:37:29.931Z,9.16
2018-09-24T16:40:05.301Z,9.46
2018-09-24T16:42:40.001Z,9.58
2018-09-24T16:45:14.717Z,9.60
2018-09-24T16:47:49.302Z,9.60
2018-09-24T16:50:23.087Z,9.67
2018-09-24T16:52:57.808Z,9.57
2018-09-24T16:55:32.297Z,9.55
2018-09-24T16:58:07.057Z,9.42
2018-09-24T17:00:41.371Z,9.42
2018-09-24T17:03:15.002Z,9.46
2018-09-24T17:05:48.750Z,9.63
2018-09-24T17:08:22.486Z,9.60
2018-09-24T17:10:56.234Z,9.57
2018-09-24T17:13:30.753Z,9.50
2018-09-24T17:16:05.033Z,9.49
2018-09-24T17:18:38.759Z,9.41
2018-09-24T17:21:12.501Z,9.27
2018-09-24T17:23:47.248Z,9.53
2018-09-24T17:26:20.990Z,9.66
2018-09-24T17:28:54.702Z,9.64
2018-09-24T17:31:28.413Z,9.75
2018-09-24T17:34:03.225Z,9.69
2018-09-24T17:36:37.000Z,9.64
2018-09-24T17:39:13.589Z,9.56
2018-09-24T17:41:47.429Z,9.47
2018-09-24T17:44:21.353Z,9.48
2018-09-24T17:46:56.208Z,9.54
2018-09-24T17:49:30.087Z,9.51
2018-09-24T17:52:03.813Z,9.53
2018-09-24T17:54:37.622Z,9.52
2018-09-24T17:57:12.266Z,9.47
2018-09-24T17:59:46.983Z,9.42
2018-09-24T18:02:20.634Z,9.35
2018-09-24T18:04:54.710Z,9.31
2018-09-24T18:07:28.533Z,9.42
2018-09-24T18:10:02.300Z,9.40
2018-09-24T18:12:37.066Z,9.44
2018-09-24T18:15:11.718Z,9.48
2018-09-24T18:17:45.407Z,9.46
2018-09-24T18:20:19.128Z,9.35
2018-09-24T18:22:54.506Z,9.35
2018-09-24T18:25:29.251Z,9.32
2018-09-24T18:28:05.052Z,9.36
2018-09-24T18:30:39.621Z,9.42
2018-09-24T18:33:14.377Z,9.45
2018-09-24T18:35:48.050Z,9.51
2018-09-24T18:38:22.633Z,9.52
2018-09-24T18:40:56.296Z,9.54
2018-09-24T18:43:31.772Z,9.49
2018-09-24T18:46:05.948Z,9.54
2018-09-24T18:48:39.840Z,9.47
2018-09-24T18:51:14.653Z,9.38
2018-09-24T18:53:49.445Z,9.24
2018-09-24T18:56:23.248Z,9.25
2018-09-24T18:58:57.865Z,9.17
2018-09-24T19:01:32.401Z,9.25
2018-09-24T19:04:07.226Z,9.29
2018-09-24T19:06:43.208Z,9.47
2018-09-24T19:09:17.979Z,9.48
2018-09-24T19:11:52.758Z,9.42
2018-09-24T19:14:27.553Z,9.37
2018-09-24T19:17:02.328Z,9.31
2018-09-24T19:19:36.749Z,9.22
2018-09-24T19:22:12.062Z,9.16
2018-09-24T19:24:46.630Z,9.08
2018-09-24T19:27:20.186Z,9.00
2018-09-24T19:29:54.532Z,9.02
2018-09-24T19:32:29.330Z,8.92
2018-09-24T19:35:02.922Z,8.80
2018-09-24T19:37:37.567Z,8.69
2018-09-24T19:40:12.514Z,8.66
2018-09-24T19:42:46.215Z,8.61
2018-09-24T19:45:20.837Z,8.50
2018-09-24T19:47:54.617Z,8.45
2018-09-24T19:50:28.272Z,8.58
2018-09-24T19:53:02.789Z,8.60
2018-09-24T19:55:36.353Z,8.61
2018-09-24T19:58:10.098Z,8.52
2018-09-24T20:00:43.792Z,8.63
2018-09-24T20:03:17.557Z,8.50
2018-09-24T20:05:51.175Z,8.47
2018-09-24T20:08:24.968Z,8.41
2018-09-24T20:10:59.717Z,8.36
2018-09-24T20:13:34.176Z,8.30
2018-09-24T20:16:07.853Z,8.27
2018-09-24T20:18:42.533Z,8.25
2018-09-24T20:21:16.128Z,8.22
2018-09-24T20:23:50.070Z,8.17
2018-09-24T20:26:24.175Z,8.05
2018-09-24T20:28:58.752Z,7.98
2018-09-24T20:31:32.448Z,7.99
2018-09-24T20:34:06.064Z,8.01
2018-09-24T20:36:39.638Z,8.11
2018-09-24T20:39:14.066Z,8.11
2018-09-24T20:41:48.974Z,8.18
2018-09-24T20:44:24.215Z,8.19
2018-09-24T20:46:58.258Z,8.26
2018-09-24T20:49:32.639Z,8.20
2018-09-24T20:52:06.389Z,8.20
2018-09-24T20:54:39.971Z,8.10
2018-09-24T20:57:13.654Z,7.99
2018-09-24T20:59:48.265Z,7.93
2018-09-24T21:02:22.125Z,7.79
2018-09-24T21:04:55.923Z,7.87
2018-09-24T21:07:31.517Z,7.77
2018-09-24T21:10:06.213Z,7.68
2018-09-24T21:12:39.785Z,7.61
2018-09-24T21:15:13.519Z,7.59
2018-09-24T21:17:48.253Z,7.65
2018-09-24T21:20:22.004Z,7.59
2018-09-24T21:22:56.773Z,7.52
2018-09-24T21:25:32.514Z,7.45
2018-09-24T21:28:06.233Z,7.60
2018-09-24T21:30:41.700Z,7.57
2018-09-24T21:33:16.360Z,7.50
2018-09-24T21:35:50.233Z,7.46
2018-09-24T21:38:23.957Z,7.37
2018-09-24T21:40:57.689Z,7.35
2018-09-24T21:43:32.456Z,7.25
2018-09-24T21:46:06.291Z,7.31
2018-09-24T21:48:41.759Z,7.26
2018-09-24T21:51:16.537Z,7.11
2018-09-24T21:53:51.202Z,7.05
2018-09-24T21:56:25.946Z,7.13
2018-09-24T21:59:00.637Z,7.10
2018-09-24T22:01:35.225Z,7.14
2018-09-24T22:04:09.000Z,7.17
2018-09-24T22:06:43.785Z,7.11
2018-09-24T22:09:18.512Z,7.06
2018-09-24T22:11:52.262Z,7.00
2018-09-24T22:14:26.837Z,6.95
2018-09-24T22:17:02.616Z,6.89
2018-09-24T22:19:36.334Z,7.01
2018-09-24T22:22:09.920Z,6.97
2018-09-24T22:24:43.538Z,6.93
2018-09-24T22:27:17.249Z,6.92
2018-09-24T22:29:51.089Z,6.79
2018-09-24T22:32:24.796Z,6.80
2018-09-24T22:34:59.524Z,6.86
2018-09-24T22:37:33.161Z,6.94
2018-09-24T22:40:06.765Z,6.93
2018-09-24T22:42:42.032Z,6.98
2018-09-24T22:45:15.789Z,6.91
2018-09-24T22:47:50.528Z,6.94
2018-09-24T22:50:25.261Z,6.92
2018-09-24T22:52:59.833Z,6.86
2018-09-24T22:55:40.325Z,6.77
2018-09-24T22:58:15.193Z,6.73
2018-09-24T23:00:49.066Z,6.67
2018-09-24T23:03:22.865Z,6.77
2018-09-24T23:05:56.524Z,6.76
2018-09-24T23:08:30.241Z,6.68
2018-09-24T23:11:05.045Z,6.67
2018-09-24T23:13:39.629Z,6.62
2018-09-24T23:16:14.328Z,6.65
2018-09-24T23:18:49.017Z,6.54
2018-09-24T23:21:22.765Z,6.57
2018-09-24T23:23:56.481Z,6.59
2018-09-24T23:26:30.802Z,6.54
2018-09-24T23:29:05.633Z,6.48
2018-09-24T23:31:40.419Z,6.49
2018-09-24T23:34:15.229Z,6.51
2018-09-24T23:36:50.072Z,6.60
2018-09-24T23:39:24.789Z,6.49
2018-09-24T23:41:59.609Z,6.43
2018-09-24T23:44:34.842Z,6.46
2018-09-24T23:47:09.426Z,6.38
2018-09-24T23:49:42.997Z,6.42
2018-09-24T23:52:17.833Z,6.31
2018-09-24T23:54:52.577Z,6.27
2018-09-24T23:57:26.341Z,6.40
